createdAt,value
2018-09-27T00:01:49.567Z,84.60
2018-09-27T00:04:17.972Z,84.40
2018-09-27T00:06:46.186Z,84.60
2018-09-27T00:09:14.609Z,84.70
2018-09-27T00:11:42.837Z,84.90
2018-09-27T00:14:11.029Z,85.10
2018-09-27T00:16:39.306Z,85.20
2018-09-27T00:19:07.712Z,85.10
2018-09-27T00:21:36.071Z,84.80
2018-09-27T00:24:04.322Z,84.60
2018-09-27T00:26:32.603Z,84.30
2018-09-27T00:29:00.866Z,84.30
2018-09-27T00:31:29.142Z,84.60
2018-09-27T00:33:57.486Z,84.80
2018-09-27T00:36:25.920Z,84.80
2018-09-27T00:38:54.252Z,85.30
2018-09-27T00:41:22.562Z,85.50
2018-09-27T00:43:50.816Z,85.40
2018-09-27T00:46:19.228Z,85.50
2018-09-27T00:48:47.442Z,85.30
2018-09-27T00:51:15.686Z,85.20
2018-09-27T00:53:44.044Z,84.80
2018-09-27T00:56:12.337Z,84.20
2018-09-27T00:58:42.627Z,84.30
2018-09-27T01:01:10.848Z,84.70
2018-09-27T01:03:40.023Z,85.40
2018-09-27T01:06:08.224Z,85.90
2018-09-27T01:08:36.474Z,86.20
2018-09-27T01:11:04.767Z,86.90
2018-09-27T01:13:32.992Z,86.90
2018-09-27T01:16:05.036Z,86.80
2018-09-27T01:18:33.319Z,87.30
2018-09-27T01:21:01.673Z,87.30
2018-09-27T01:23:29.865Z,86.90
2018-09-27T01:25:58.301Z,87.50
2018-09-27T01:28:26.628Z,88.40
2018-09-27T01:30:54.860Z,88.90
2018-09-27T01:33:23.056Z,88.70
2018-09-27T01:35:51.328Z,88.00
2018-09-27T01:38:19.731Z,88.20
2018-09-27T01:40:48.013Z,87.00
2018-09-27T01:43:16.283Z,85.70
2018-09-27T01:45:44.572Z,85.10
2018-09-27T01:48:13.003Z,85.60
2018-09-27T01:50:41.555Z,85.80
2018-09-27T01:53:09.947Z,85.70
2018-09-27T01:55:38.196Z,85.60
2018-09-27T01:58:06.484Z,85.70
2018-09-27T02:00:34.815Z,85.30
2018-09-27T02:03:03.088Z,85.10
2018-09-27T02:05:33.048Z,85.10
2018-09-27T02:08:01.277Z,85.30
2018-09-27T02:10:30.673Z,85.20
2018-09-27T02:12:58.896Z,85.40
2018-09-27T02:15:27.132Z,85.40
2018-09-27T02:17:55.414Z,85.60
2018-09-27T02:20:23.628Z,85.60
2018-09-27T02:22:51.951Z,86.00
2018-09-27T02:25:20.188Z,86.20
2018-09-27T02:27:49.269Z,86.40
2018-09-27T02:30:17.483Z,86.40
2018-09-27T02:32:45.754Z,86.40
2018-09-27T02:35:14.366Z,86.20
2018-09-27T02:37:42.898Z,85.80
2018-09-27T02:40:11.777Z,85.70
2018-09-27T02:42:40.341Z,85.80
2018-09-27T02:45:08.587Z,85.90
2018-09-27T02:47:36.818Z,86.00
2018-09-27T02:50:05.110Z,86.10
2018-09-27T02:52:33.380Z,86.00
2018-09-27T02:55:01.707Z,86.00
2018-09-27T02:57:29.916Z,85.30
2018-09-27T02:59:59.521Z,85.70
2018-09-27T03:02:28.827Z,85.70
2018-09-27T03:04:57.104Z,85.70
2018-09-27T03:07:25.766Z,85.50
2018-09-27T03:09:54.058Z,85.70
2018-09-27T03:12:22.396Z,85.70
2018-09-27T03:14:50.708Z,85.60
2018-09-27T03:17:19.223Z,86.00
2018-09-27T03:19:47.729Z,86.00
2018-09-27T03:22:16.105Z,86.20
2018-09-27T03:24:44.448Z,86.50
2018-09-27T03:27:12.697Z,86.60
2018-09-27T03:29:41.910Z,86.40
2018-09-27T03:32:10.175Z,86.40
2018-09-27T03:34:38.435Z,86.40
2018-09-27T03:37:06.747Z,86.10
2018-09-27T03:39:35.428Z,86.00
2018-09-27T03:42:03.771Z,86.00
2018-09-27T03:44:31.960Z,86.20
2018-09-27T03:47:00.341Z,86.40
2018-09-27T03:49:28.613Z,86.60
2018-09-27T03:51:56.873Z,86.50
2018-09-27T03:54:25.112Z,86.40
2018-09-27T03:56:53.386Z,86.60
2018-09-27T03:59:21.812Z,86.60
2018-09-27T04:01:50.299Z,86.70
2018-09-27T04:04:18.506Z,86.90
2018-09-27T04:06:46.744Z,86.90
2018-09-27T04:09:15.971Z,87.00
2018-09-27T04:11:44.478Z,87.40
2018-09-27T04:14:12.819Z,87.40
2018-09-27T04:16:41.168Z,88.00
2018-09-27T04:19:09.396Z,88.40
2018-09-27T04:21:37.780Z,88.40
2018-09-27T04:24:06.387Z,88.70
2018-09-27T04:26:34.645Z,89.10
2018-09-27T04:29:02.941Z,89.10
2018-09-27T04:31:32.633Z,89.30
2018-09-27T04:34:00.913Z,89.40
2018-09-27T04:36:29.182Z,89.60
2018-09-27T04:38:57.480Z,89.60
2018-09-27T04:41:25.751Z,89.70
2018-09-27T04:43:54.341Z,90.00
2018-09-27T04:46:22.545Z,90.10
2018-09-27T04:48:51.095Z,90.20
2018-09-27T04:51:19.385Z,90.40
2018-09-27T04:53:48.241Z,90.40
2018-09-27T04:56:16.706Z,90.40
2018-09-27T04:58:44.966Z,90.50
2018-09-27T05:01:13.199Z,90.70
2018-09-27T05:03:41.467Z,90.70
2018-09-27T05:06:09.692Z,90.70
2018-09-27T05:08:37.975Z,90.80
2018-09-27T05:11:06.502Z,90.70
2018-09-27T05:13:34.953Z,90.80
2018-09-27T05:16:03.280Z,90.80
2018-09-27T05:18:31.546Z,90.80
2018-09-27T05:20:59.818Z,91.00
2018-09-27T05:23:28.089Z,90.90
2018-09-27T05:25:56.398Z,91.00
2018-09-27T05:28:24.871Z,91.00
2018-09-27T05:30:53.358Z,91.10
2018-09-27T05:33:22.638Z,91.00
2018-09-27T05:35:50.951Z,90.90
2018-09-27T05:38:19.312Z,90.80
2018-09-27T05:40:47.555Z,90.80
2018-09-27T05:43:15.843Z,90.70
2018-09-27T05:45:44.146Z,90.50
2018-09-27T05:48:12.361Z,90.40
2018-09-27T05:50:40.623Z,90.30
2018-09-27T05:53:08.954Z,90.20
2018-09-27T05:55:38.633Z,90.00
2018-09-27T05:58:06.862Z,88.50
2018-09-27T06:00:35.123Z,88.40
2018-09-27T06:03:03.483Z,88.10
2018-09-27T06:05:31.885Z,88.00
2018-09-27T06:08:00.320Z,87.80
2018-09-27T06:10:28.614Z,87.50
2018-09-27T06:12:57.039Z,86.50
2018-09-27T06:15:25.327Z,85.80
2018-09-27T06:17:53.558Z,85.80
2018-09-27T06:20:22.036Z,85.60
2018-09-27T06:22:50.317Z,85.10
2018-09-27T06:25:18.642Z,84.90
2018-09-27T06:27:46.914Z,84.80
2018-09-27T06:30:15.101Z,84.40
2018-09-27T06:32:43.369Z,83.90
2018-09-27T06:35:12.082Z,83.00
2018-09-27T06:37:40.310Z,82.60
2018-09-27T06:40:08.595Z,82.00
2018-09-27T06:42:36.920Z,80.90
2018-09-27T06:45:05.890Z,80.30
2018-09-27T06:47:34.184Z,80.20
2018-09-27T06:50:02.476Z,79.70
2018-09-27T06:52:30.680Z,79.40
2018-09-27T06:54:58.989Z,78.50
2018-09-27T06:57:28.130Z,76.30
2018-09-27T06:59:56.409Z,76.60
2018-09-27T07:02:24.785Z,76.60
2018-09-27T07:04:53.086Z,76.00
2018-09-27T07:07:21.320Z,75.20
2018-09-27T07:09:49.606Z,73.90
2018-09-27T07:12:18.526Z,73.50
2018-09-27T07:14:46.718Z,72.50
2018-09-27T07:17:14.986Z,72.20
2018-09-27T07:19:43.266Z,70.60
2018-09-27T07:22:11.489Z,70.60
2018-09-27T07:24:40.260Z,71.00
2018-09-27T07:27:08.479Z,69.80
2018-09-27T07:29:36.673Z,69.60
2018-09-27T07:32:04.928Z,70.30
2018-09-27T07:34:33.168Z,70.00
2018-09-27T07:37:01.652Z,68.60
2018-09-27T07:39:29.874Z,67.50
2018-09-27T07:41:58.161Z,65.70
2018-09-27T07:44:26.695Z,64.70
2018-09-27T07:46:55.097Z,63.80
2018-09-27T07:49:23.545Z,61.10
2018-09-27T07:51:51.834Z,62.20
2018-09-27T07:54:20.224Z,61.50
2018-09-27T07:56:48.393Z,61.20
2018-09-27T07:59:18.082Z,60.50
2018-09-27T08:01:46.262Z,59.70
2018-09-27T08:04:14.548Z,59.50
2018-09-27T08:06:42.802Z,59.30
2018-09-27T08:09:11.105Z,57.50
2018-09-27T08:11:39.801Z,56.30
2018-09-27T08:14:08.525Z,52.80
2018-09-27T08:16:36.819Z,48.30
2018-09-27T08:19:05.122Z,43.60
2018-09-27T08:21:34.255Z,40.20
2018-09-27T08:24:02.489Z,37.90
2018-09-27T08:26:30.733Z,35.30
2018-09-27T08:28:59.047Z,32.20
2018-09-27T08:31:27.333Z,32.60
2018-09-27T08:33:55.536Z,31.90
2018-09-27T08:36:23.779Z,31.30
2018-09-27T08:38:52.195Z,30.60
2018-09-27T08:41:20.450Z,31.50
2018-09-27T08:43:48.685Z,32.80
2018-09-27T08:46:16.945Z,30.50
2018-09-27T08:48:45.200Z,29.50
2018-09-27T08:51:13.540Z,29.50
2018-09-27T08:53:41.825Z,28.60
2018-09-27T08:56:10.194Z,29.30
2018-09-27T08:58:38.385Z,29.40
2018-09-27T09:01:06.756Z,29.20
2018-09-27T09:03:35.033Z,29.90
2018-09-27T09:06:03.627Z,30.00
2018-09-27T09:08:31.935Z,29.50
2018-09-27T09:11:00.178Z,28.20
2018-09-27T09:13:28.462Z,26.70
2018-09-27T09:15:56.823Z,27.10
2018-09-27T09:23:18.363Z,28.80
2018-09-27T09:25:46.746Z,26.70
2018-09-27T09:28:15.057Z,25.80
2018-09-27T09:30:43.241Z,26.80
2018-09-27T09:33:11.522Z,24.60
2018-09-27T09:35:41.469Z,24.50
2018-09-27T09:38:09.753Z,25.50
2018-09-27T09:40:37.959Z,25.20
2018-09-27T09:43:06.341Z,24.70
2018-09-27T09:45:34.628Z,24.50
2018-09-27T09:48:02.886Z,24.80
2018-09-27T09:50:31.209Z,24.40
2018-09-27T09:52:59.374Z,23.90
2018-09-27T09:55:28.029Z,24.70
2018-09-27T09:57:57.555Z,24.90
2018-09-27T10:00:26.613Z,25.00
2018-09-27T10:02:54.877Z,25.60
2018-09-27T10:05:23.155Z,25.30
2018-09-27T10:07:51.454Z,25.40
2018-09-27T10:10:19.771Z,24.50
2018-09-27T10:12:48.069Z,25.60
2018-09-27T10:15:16.313Z,25.90
2018-09-27T10:17:44.555Z,26.30
2018-09-27T10:20:14.269Z,26.30
2018-09-27T10:22:42.879Z,27.00
2018-09-27T10:25:11.242Z,28.40
2018-09-27T10:27:39.433Z,28.70
2018-09-27T10:30:07.754Z,28.80
2018-09-27T10:32:36.192Z,29.80
2018-09-27T10:35:04.642Z,29.60
2018-09-27T10:37:32.942Z,30.00
2018-09-27T10:40:01.202Z,30.70
2018-09-27T10:42:29.466Z,30.50
2018-09-27T10:44:57.848Z,30.80
2018-09-27T10:47:26.134Z,29.70
2018-09-27T10:49:54.388Z,29.40
2018-09-27T10:52:22.634Z,29.10
2018-09-27T10:54:50.942Z,29.70
2018-09-27T10:57:19.323Z,29.70
2018-09-27T10:59:49.069Z,28.20
2018-09-27T11:02:17.465Z,28.30
2018-09-27T11:04:46.247Z,28.40
2018-09-27T11:07:14.564Z,28.90
2018-09-27T11:09:43.071Z,29.60
2018-09-27T11:12:11.318Z,29.10
2018-09-27T11:14:39.594Z,28.80
2018-09-27T11:17:07.860Z,29.40
2018-09-27T11:19:36.153Z,28.80
2018-09-27T11:22:05.026Z,29.00
2018-09-27T11:24:33.268Z,29.30
2018-09-27T11:27:01.879Z,28.00
2018-09-27T11:29:35.677Z,26.50
2018-09-27T11:32:09.514Z,28.00
2018-09-27T11:34:37.811Z,26.90
2018-09-27T11:37:06.064Z,27.50
2018-09-27T11:39:34.314Z,26.90
2018-09-27T11:42:02.579Z,27.10
2018-09-27T11:44:30.833Z,25.80
2018-09-27T11:46:59.188Z,26.40
2018-09-27T11:49:27.655Z,27.00
2018-09-27T11:51:55.788Z,26.80
2018-09-27T11:54:23.995Z,26.00
2018-09-27T11:56:52.254Z,26.80
2018-09-27T11:59:20.488Z,27.00
2018-09-27T12:01:48.795Z,26.80
2018-09-27T12:04:17.063Z,26.70
2018-09-27T12:11:38.032Z,27.30
2018-09-27T12:14:06.374Z,27.30
2018-09-27T12:16:34.895Z,27.70
2018-09-27T12:19:03.272Z,27.50
2018-09-27T12:21:31.647Z,27.30
2018-09-27T12:25:21.390Z,28.20
2018-09-27T12:27:49.711Z,27.30
2018-09-27T12:30:18.406Z,27.10
2018-09-27T12:32:46.701Z,27.40
2018-09-27T12:35:14.999Z,27.10
2018-09-27T12:37:43.309Z,28.00
2018-09-27T12:40:13.710Z,27.50
2018-09-27T12:42:41.920Z,27.80
2018-09-27T12:45:10.388Z,27.60
2018-09-27T12:47:38.695Z,27.80
2018-09-27T12:50:07.973Z,27.70
2018-09-27T12:52:36.312Z,28.30
2018-09-27T12:55:04.626Z,28.60
2018-09-27T12:57:33.065Z,28.30
2018-09-27T13:00:01.325Z,27.90
2018-09-27T13:02:30.810Z,28.20
2018-09-27T13:04:59.251Z,28.10
2018-09-27T13:07:27.714Z,29.00
2018-09-27T13:09:56.110Z,28.50
2018-09-27T13:12:24.347Z,28.50
2018-09-27T13:14:52.861Z,28.10
2018-09-27T13:17:21.396Z,28.10
2018-09-27T13:19:50.487Z,28.00
2018-09-27T13:22:18.976Z,28.30
2018-09-27T13:24:47.560Z,28.90
2018-09-27T13:27:16.040Z,28.40
2018-09-27T13:29:44.360Z,28.90
2018-09-27T13:32:12.596Z,28.80
2018-09-27T13:34:40.976Z,29.10
2018-09-27T13:37:09.540Z,29.30
2018-09-27T13:39:37.970Z,29.60
2018-09-27T13:42:07.251Z,28.80
2018-09-27T13:44:35.594Z,29.10
2018-09-27T13:47:03.891Z,29.50
2018-09-27T13:49:32.242Z,29.10
2018-09-27T13:52:00.788Z,29.00
2018-09-27T13:54:29.155Z,29.70
2018-09-27T13:56:57.607Z,29.80
2018-09-27T13:59:25.951Z,29.80
2018-09-27T14:01:54.504Z,29.30
2018-09-27T14:04:24.161Z,28.80
2018-09-27T14:06:52.832Z,29.40
2018-09-27T14:09:21.395Z,29.50
2018-09-27T14:11:49.924Z,30.00
2018-09-27T14:14:18.415Z,29.80
2018-09-27T14:16:46.717Z,29.70
2018-09-27T14:19:14.982Z,29.60
2018-09-27T14:21:43.216Z,29.70
2018-09-27T14:24:11.567Z,30.40
2018-09-27T14:26:39.914Z,30.80
2018-09-27T14:29:08.412Z,31.10
2018-09-27T14:31:37.090Z,31.20
2018-09-27T14:34:05.623Z,32.00
2018-09-27T14:36:34.150Z,32.40
2018-09-27T14:39:02.453Z,32.50
2018-09-27T14:41:30.763Z,33.00
2018-09-27T14:43:59.545Z,32.60
2018-09-27T14:46:27.848Z,32.60
2018-09-27T14:48:56.169Z,32.50
2018-09-27T14:51:24.413Z,32.90
2018-09-27T14:53:52.670Z,33.10
2018-09-27T14:56:21.101Z,32.80
2018-09-27T14:58:50.226Z,31.50
2018-09-27T15:01:18.547Z,31.40
2018-09-27T15:03:46.924Z,30.90
2018-09-27T15:06:16.788Z,31.80
2018-09-27T15:08:45.240Z,32.80
2018-09-27T15:11:14.668Z,32.80
2018-09-27T15:13:46.264Z,34.60
2018-09-27T15:16:14.747Z,33.50
2018-09-27T15:18:43.079Z,34.40
2018-09-27T15:21:11.445Z,34.70
2018-09-27T15:23:41.058Z,34.50
2018-09-27T15:26:09.521Z,35.20
2018-09-27T15:28:37.787Z,35.70
2018-09-27T15:31:06.170Z,35.80
2018-09-27T15:33:35.010Z,36.20
2018-09-27T15:36:03.401Z,36.40
2018-09-27T15:38:31.899Z,36.70
2018-09-27T15:41:00.454Z,36.80
2018-09-27T15:43:28.899Z,37.50
2018-09-27T15:45:57.258Z,37.90
2018-09-27T15:48:25.705Z,37.50
2018-09-27T15:50:54.103Z,37.70
2018-09-27T15:53:22.598Z,37.40
2018-09-27T16:00:43.916Z,37.90
2018-09-27T16:03:12.296Z,37.60
2018-09-27T16:05:40.603Z,37.60
2018-09-27T16:08:08.941Z,37.70
2018-09-27T16:10:37.417Z,38.40
2018-09-27T16:20:18.162Z,38.50
2018-09-27T16:22:47.587Z,38.30
2018-09-27T16:25:16.747Z,38.40
2018-09-27T16:27:45.250Z,38.80
2018-09-27T16:30:13.553Z,38.80
2018-09-27T16:32:42.023Z,39.00
2018-09-27T16:35:10.837Z,39.30
2018-09-27T16:37:39.146Z,39.60
2018-09-27T16:40:07.451Z,40.00
2018-09-27T16:42:35.978Z,39.90
2018-09-27T16:45:04.446Z,40.50
2018-09-27T16:52:26.628Z,41.10
2018-09-27T16:54:55.091Z,41.40
2018-09-27T16:57:23.503Z,41.50
2018-09-27T16:59:53.009Z,41.80
2018-09-27T17:02:22.175Z,41.90
2018-09-27T17:04:50.576Z,42.00
2018-09-27T17:07:19.947Z,42.30
2018-09-27T17:09:48.342Z,42.60
2018-09-27T17:12:16.713Z,43.00
2018-09-27T17:20:19.074Z,44.60
2018-09-27T17:22:47.480Z,44.90
2018-09-27T17:25:15.989Z,45.10
2018-09-27T17:27:44.468Z,45.20
2018-09-27T17:30:13.208Z,45.60
2018-09-27T17:32:41.662Z,46.10
2018-09-27T17:35:10.081Z,46.60
2018-09-27T17:37:38.394Z,46.90
2018-09-27T17:40:07.277Z,47.40
2018-09-27T17:42:35.717Z,48.20
2018-09-27T17:45:04.014Z,48.60
2018-09-27T17:47:32.290Z,49.10
2018-09-27T17:50:01.671Z,49.40
2018-09-27T17:52:30.127Z,50.20
2018-09-27T17:54:59.192Z,50.60
2018-09-27T17:57:27.566Z,51.20
2018-09-27T17:59:57.010Z,51.30
2018-09-27T18:02:26.635Z,52.30
2018-09-27T18:04:55.155Z,52.70
2018-09-27T18:07:23.909Z,53.40
2018-09-27T18:09:52.297Z,53.80
2018-09-27T18:12:20.732Z,53.90
2018-09-27T18:14:50.095Z,54.40
2018-09-27T18:17:18.451Z,55.00
2018-09-27T18:19:46.934Z,55.60
2018-09-27T18:22:15.270Z,55.90
2018-09-27T18:24:43.523Z,56.50
2018-09-27T18:27:11.950Z,57.10
2018-09-27T18:29:40.351Z,57.50
2018-09-27T18:32:09.621Z,58.60
2018-09-27T18:34:37.998Z,58.90
2018-09-27T18:37:06.500Z,59.50
2018-09-27T18:39:34.779Z,59.70
2018-09-27T18:42:03.129Z,60.60
2018-09-27T18:44:31.562Z,61.40
2018-09-27T18:46:59.837Z,62.00
2018-09-27T18:49:28.378Z,62.60
2018-09-27T18:51:56.779Z,63.00
2018-09-27T18:54:25.328Z,63.60
2018-09-27T18:56:53.641Z,64.00
2018-09-27T18:59:22.040Z,64.10
2018-09-27T19:01:50.353Z,64.60
2018-09-27T19:04:18.539Z,65.50
2018-09-27T19:06:47.005Z,65.90
2018-09-27T19:09:15.456Z,66.50
2018-09-27T19:11:43.816Z,67.70
2018-09-27T19:14:12.211Z,67.90
2018-09-27T19:21:33.495Z,68.50
2018-09-27T19:24:01.832Z,69.50
2018-09-27T19:26:30.113Z,69.90
2018-09-27T19:28:58.507Z,70.00
2018-09-27T19:31:26.922Z,70.40
2018-09-27T19:33:55.265Z,70.60
2018-09-27T19:36:23.673Z,70.70
2018-09-27T19:38:52.177Z,70.90
2018-09-27T19:41:20.498Z,71.20
2018-09-27T19:43:49.425Z,72.10
2018-09-27T19:46:17.738Z,73.60
2018-09-27T19:48:46.185Z,72.90
2018-09-27T19:51:14.714Z,73.20
2018-09-27T19:53:42.962Z,73.50
2018-09-27T19:56:11.422Z,73.80
2018-09-27T19:58:39.860Z,73.70
2018-09-27T20:01:08.022Z,74.20
2018-09-27T20:03:36.496Z,73.70
2018-09-27T20:06:04.958Z,73.80
2018-09-27T20:08:33.251Z,74.00
2018-09-27T20:11:01.728Z,74.40
2018-09-27T20:13:30.366Z,74.60
2018-09-27T20:15:59.031Z,74.90
2018-09-27T20:18:27.316Z,75.30
2018-09-27T20:20:57.073Z,76.10
2018-09-27T20:23:25.377Z,76.10
2018-09-27T20:25:54.838Z,76.50
2018-09-27T20:28:23.919Z,76.90
2018-09-27T20:30:52.357Z,77.10
2018-09-27T20:33:21.020Z,77.50
2018-09-27T20:35:49.456Z,77.80
2018-09-27T20:38:17.809Z,78.20
2018-09-27T20:40:46.047Z,78.20
2018-09-27T20:43:14.396Z,78.60
2018-09-27T20:45:42.899Z,78.60
2018-09-27T20:48:11.304Z,78.60
2018-09-27T20:50:39.784Z,78.60
2018-09-27T20:53:08.431Z,79.00
2018-09-27T20:55:36.835Z,79.30
2018-09-27T20:58:05.367Z,79.70
2018-09-27T21:00:33.743Z,80.10
2018-09-27T21:03:02.181Z,80.40
2018-09-27T21:05:30.621Z,80.60
2018-09-27T21:08:30.124Z,80.60
2018-09-27T21:10:58.512Z,80.90
2018-09-27T21:13:27.150Z,81.40
2018-09-27T21:15:55.730Z,81.50
2018-09-27T21:18:24.277Z,81.90
2018-09-27T21:20:52.706Z,82.00
2018-09-27T21:23:20.969Z,82.60
2018-09-27T21:25:49.315Z,82.70
2018-09-27T21:28:17.908Z,83.10
2018-09-27T21:30:46.248Z,84.00
2018-09-27T21:33:15.150Z,83.90
2018-09-27T21:40:36.040Z,84.70
2018-09-27T21:43:04.311Z,86.50
2018-09-27T21:45:32.727Z,87.20
2018-09-27T21:48:01.065Z,87.40
2018-09-27T21:50:29.897Z,87.80
2018-09-27T21:52:58.111Z,87.90
2018-09-27T21:55:26.977Z,88.00
2018-09-27T21:57:55.692Z,88.50
2018-09-27T22:00:24.051Z,88.90
2018-09-27T22:02:53.115Z,89.60
2018-09-27T22:05:21.485Z,89.80
2018-09-27T22:07:49.877Z,89.50
2018-09-27T22:10:18.189Z,90.00
2018-09-27T22:12:47.863Z,90.20
2018-09-27T22:15:17.431Z,90.60
2018-09-27T22:17:46.885Z,90.70
2018-09-27T22:20:15.162Z,90.70
2018-09-27T22:22:43.491Z,90.80
2018-09-27T22:25:11.773Z,90.90
2018-09-27T22:27:40.126Z,91.00
2018-09-27T22:30:08.646Z,91.20
2018-09-27T22:32:36.997Z,91.30
2018-09-27T22:35:05.519Z,91.40
2018-09-27T22:42:27.158Z,91.70
2018-09-27T22:44:55.470Z,91.30
2018-09-27T22:47:23.797Z,91.20
2018-09-27T22:49:52.120Z,91.10
2018-09-27T22:52:20.481Z,90.90
2018-09-27T22:54:49.765Z,90.70
2018-09-27T22:57:18.023Z,90.60
2018-09-27T22:59:46.393Z,90.50
2018-09-27T23:02:14.698Z,90.40
2018-09-27T23:04:43.126Z,90.40
2018-09-27T23:07:12.245Z,90.50
2018-09-27T23:09:40.520Z,90.30
2018-09-27T23:12:08.811Z,90.30
2018-09-27T23:14:37.169Z,90.20
2018-09-27T23:17:05.507Z,90.10
2018-09-27T23:19:35.113Z,90.10
2018-09-27T23:22:04.584Z,90.30
2018-09-27T23:24:32.886Z,90.60
2018-09-27T23:27:01.170Z,90.10
2018-09-27T23:29:29.455Z,90.20
2018-09-27T23:31:57.724Z,90.30
2018-09-27T23:34:26.282Z,90.30
2018-09-27T23:36:54.614Z,90.40
2018-09-27T23:39:22.878Z,90.30
2018-09-27T23:41:51.201Z,90.30
2018-09-27T23:44:19.460Z,90.20
2018-09-27T23:46:47.792Z,90.30
2018-09-27T23:49:16.057Z,90.50
2018-09-27T23:51:44.467Z,90.70
2018-09-27T23:54:12.738Z,90.70
